TimeCDT,TemperatureF,Dew PointF,Humidity,Sea Level PressureIn,VisibilityMPH,Wind Direction,Wind SpeedMPH,Gust SpeedMPH,PrecipitationIn,Events,Conditions,WindDirDegrees,DateUTC
12:53 AM,78.1,68.0,71,29.75,10.0,NW,5.8,-,N/A,,Partly Cloudy,310,2013-06-30 05:53:00
1:53 AM,75.0,69.1,82,29.73,10.0,Calm,Calm,-,N/A,,Clear,0,2013-06-30 06:53:00
2:53 AM,73.9,68.0,82,29.72,10.0,Calm,Calm,-,N/A,,Clear,0,2013-06-30 07:53:00
3:53 AM,73.9,69.1,85,29.71,10.0,Calm,Calm,-,N/A,,Clear,0,2013-06-30 08:53:00
4:53 AM,73.0,69.1,87,29.71,10.0,Calm,Calm,-,N/A,,Clear,0,2013-06-30 09:53:00
5:53 AM,73.0,69.1,87,29.73,10.0,Calm,Calm,-,N/A,,Scattered Clouds,0,2013-06-30 10:53:00
6:53 AM,75.9,71.1,85,29.74,10.0,NNW,4.6,-,N/A,,Scattered Clouds,330,2013-06-30 11:53:00
7:24 AM,77.0,71.6,83,29.74,10.0,Calm,Calm,-,N/A,,Mostly Cloudy,0,2013-06-30 12:24:00
7:53 AM,79.0,71.1,77,29.75,10.0,North,4.6,-,N/A,,Clear,360,2013-06-30 12:53:00
8:53 AM,81.0,71.1,72,29.75,10.0,NNW,3.5,-,N/A,,Partly Cloudy,340,2013-06-30 13:53:00
9:53 AM,81.0,70.0,69,29.76,10.0,Calm,Calm,-,N/A,,Mostly Cloudy,0,2013-06-30 14:53:00
10:53 AM,82.0,70.0,67,29.75,10.0,Calm,Calm,-,N/A,,Overcast,0,2013-06-30 15:53:00
11:53 AM,82.9,72.0,69,29.75,10.0,Calm,Calm,-,N/A,,Clear,0,2013-06-30 16:53:00
12:53 PM,84.9,71.1,63,29.73,10.0,NNE,5.8,-,N/A,,Mostly Cloudy,20,2013-06-30 17:53:00
1:53 PM,89.1,69.1,52,29.72,10.0,North,4.6,-,N/A,,Mostly Cloudy,360,2013-06-30 18:53:00
2:53 PM,88.0,69.1,53,29.72,10.0,Calm,Calm,-,N/A,,Scattered Clouds,0,2013-06-30 19:53:00
3:53 PM,84.9,72.0,65,29.72,10.0,South,8.1,-,N/A,,Mostly Cloudy,180,2013-06-30 20:53:00
4:53 PM,82.9,72.0,69,29.72,10.0,South,10.4,-,N/A,,Partly Cloudy,190,2013-06-30 21:53:00
5:11 PM,82.4,73.4,74,29.71,1.8,SW,11.5,-,0.03,Rain,Heavy Rain,230,2013-06-30 22:11:00
5:19 PM,80.6,73.4,79,29.73,1.0,West,12.7,-,0.15,Rain-Thunderstorm,Heavy Thunderstorms and Rain,260,2013-06-30 22:19:00
5:27 PM,77.0,73.4,89,29.73,0.5,SW,12.7,20.7,0.36,Fog-Rain-Thunderstorm,Heavy Thunderstorms and Rain,230,2013-06-30 22:27:00
5:38 PM,78.8,73.4,83,29.72,5.0,SSW,9.2,-,0.39,Rain-Thunderstorm,Light Thunderstorms and Rain,210,2013-06-30 22:38:00
5:53 PM,78.1,73.0,84,29.72,10.0,South,8.1,-,0.39,,Mostly Cloudy,190,2013-06-30 22:53:00
6:53 PM,80.1,72.0,76,29.73,10.0,East,4.6,-,N/A,,Clear,90,2013-06-30 23:53:00
7:53 PM,78.1,72.0,81,29.75,10.0,Calm,Calm,-,N/A,,Clear,0,2013-07-01 00:53:00
8:53 PM,75.9,73.0,91,29.75,10.0,Calm,Calm,-,N/A,,Clear,0,2013-07-01 01:53:00
9:53 PM,75.0,73.0,94,29.78,10.0,Calm,Calm,-,0.00,,Clear,0,2013-07-01 02:53:00
10:53 PM,75.9,73.0,91,29.78,10.0,Calm,Calm,-,N/A,,Clear,0,2013-07-01 03:53:00
11:53 PM,75.0,73.0,94,29.78,9.0,Calm,Calm,-,N/A,,Clear,0,2013-07-01 04:53:00